createdAt,value
2022-12-25T00:02:20.429Z,29.98
2022-12-25T00:04:47.212Z,19.50
2022-12-25T00:07:14.111Z,26.65
2022-12-25T00:09:40.874Z,35.40
2022-12-25T00:12:07.625Z,44.95
2022-12-25T00:14:34.314Z,33.38
2022-12-25T00:17:01.109Z,28.08
2022-12-25T00:19:27.909Z,22.63
2022-12-25T00:21:54.856Z,20.65
2022-12-25T00:24:21.617Z,13.82
2022-12-25T00:26:48.343Z,10.98
2022-12-25T00:29:15.178Z,10.95
2022-12-25T00:31:41.978Z,12.77
2022-12-25T00:34:08.839Z,10.70
2022-12-25T00:36:41.375Z,9.55
2022-12-25T00:39:08.710Z,7.72
2022-12-25T00:41:54.196Z,7.60
2022-12-25T00:44:21.052Z,8.13
2022-12-25T00:46:48.175Z,9.13
2022-12-25T00:49:14.904Z,9.48
2022-12-25T00:51:41.695Z,6.95
2022-12-25T00:54:09.093Z,7.93
2022-12-25T00:56:36.122Z,8.20
2022-12-25T00:59:02.923Z,6.82
2022-12-25T01:01:29.807Z,10.02
2022-12-25T01:03:56.663Z,7.68
2022-12-25T01:06:23.421Z,6.57
2022-12-25T01:09:08.935Z,4.70
2022-12-25T01:11:35.945Z,5.65
2022-12-25T01:14:03.025Z,8.70
2022-12-25T01:16:30.360Z,6.72
2022-12-25T01:18:57.293Z,6.07
2022-12-25T01:21:24.472Z,7.32
2022-12-25T01:23:52.882Z,5.70
2022-12-25T01:26:22.246Z,4.15
2022-12-25T01:28:50.930Z,8.05
2022-12-25T01:31:20.335Z,8.23
2022-12-25T01:33:47.885Z,7.72
2022-12-25T01:36:20.080Z,9.93
2022-12-25T01:38:47.380Z,12.95
2022-12-25T01:41:16.151Z,7.60
2022-12-25T01:44:00.305Z,6.57
2022-12-25T01:46:27.428Z,7.47
2022-12-25T01:48:56.296Z,8.60
2022-12-25T01:51:33.395Z,9.82
2022-12-25T01:54:05.138Z,8.55
2022-12-25T01:56:33.515Z,5.13
2022-12-25T01:59:02.449Z,6.03
2022-12-25T02:01:29.368Z,7.75
2022-12-25T02:04:05.308Z,8.50
2022-12-25T02:06:33.357Z,4.70
2022-12-25T02:09:00.187Z,7.72
2022-12-25T02:11:45.544Z,6.22
2022-12-25T02:14:12.386Z,6.03
2022-12-25T02:16:57.219Z,4.47
2022-12-25T02:19:38.097Z,5.88
2022-12-25T02:22:22.817Z,7.18
2022-12-25T02:25:08.015Z,6.28
2022-12-25T02:27:37.626Z,10.35
2022-12-25T02:30:07.755Z,7.07
2022-12-25T02:32:44.701Z,6.28
2022-12-25T02:35:17.264Z,5.13
2022-12-25T02:37:51.016Z,5.85
2022-12-25T02:40:33.351Z,6.43
2022-12-25T02:43:21.829Z,6.45
2022-12-25T02:46:24.547Z,3.78
2022-12-25T02:49:13.394Z,5.18
2022-12-25T02:52:05.402Z,8.35
2022-12-25T02:54:55.328Z,4.95
2022-12-25T02:57:46.747Z,3.70
2022-12-25T03:00:37.527Z,3.85
2022-12-25T03:03:28.347Z,5.75
2022-12-25T03:06:18.693Z,4.03
2022-12-25T03:08:49.994Z,6.63
2022-12-25T03:11:31.692Z,4.38
2022-12-25T03:14:26.376Z,4.53
2022-12-25T03:16:59.456Z,5.53
2022-12-25T03:19:48.804Z,5.90
2022-12-25T03:23:12.470Z,4.38
2022-12-25T03:25:57.598Z,4.88
2022-12-25T03:28:24.379Z,4.88
2022-12-25T03:31:19.527Z,3.50
2022-12-25T03:34:39.985Z,5.47
2022-12-25T03:37:37.169Z,5.13
2022-12-25T03:40:31.622Z,4.22
2022-12-25T03:43:30.996Z,5.10
2022-12-25T03:46:22.784Z,4.35
2022-12-25T03:49:15.496Z,6.95
2022-12-25T03:52:02.626Z,81.43
2022-12-25T03:54:51.357Z,14.60
2022-12-25T03:57:36.756Z,9.20
2022-12-25T04:00:23.442Z,13.73
2022-12-25T04:03:08.804Z,17.40
2022-12-25T04:05:54.040Z,15.90
2022-12-25T04:08:39.185Z,16.73
2022-12-25T04:11:24.413Z,17.42
2022-12-25T04:14:09.409Z,16.05
2022-12-25T04:16:54.687Z,17.80
2022-12-25T04:19:39.913Z,14.82
2022-12-25T04:22:25.180Z,13.48
2022-12-25T04:25:10.358Z,18.60
2022-12-25T04:27:55.531Z,17.10
2022-12-25T04:30:40.928Z,15.48
2022-12-25T04:33:26.217Z,17.00
2022-12-25T04:36:11.581Z,12.90
2022-12-25T04:38:40.056Z,13.85
2022-12-25T04:41:08.761Z,9.45
2022-12-25T04:43:35.850Z,12.15
2022-12-25T04:46:04.241Z,18.58
2022-12-25T04:48:33.857Z,19.50
2022-12-25T04:51:18.419Z,21.25
2022-12-25T04:53:46.082Z,10.23
2022-12-25T04:56:13.439Z,7.78
2022-12-25T04:58:41.992Z,7.25
2022-12-25T05:01:09.192Z,7.43
2022-12-25T05:03:36.416Z,6.15
2022-12-25T05:06:04.348Z,8.70
2022-12-25T05:08:32.077Z,5.85
2022-12-25T05:10:59.146Z,8.52
2022-12-25T05:13:25.919Z,11.25
2022-12-25T05:15:52.890Z,9.35
2022-12-25T05:18:19.655Z,7.78
2022-12-25T05:20:55.788Z,10.48
2022-12-25T05:23:22.895Z,8.50
2022-12-25T05:25:49.782Z,8.80
2022-12-25T05:28:16.795Z,10.15
2022-12-25T05:30:43.533Z,8.27
2022-12-25T05:33:10.449Z,11.65
2022-12-25T05:35:38.379Z,12.70
2022-12-25T05:38:06.947Z,11.55
2022-12-25T05:40:34.788Z,9.38
2022-12-25T05:43:01.507Z,12.40
2022-12-25T05:45:28.255Z,8.15
2022-12-25T05:47:55.034Z,8.38
2022-12-25T05:50:21.921Z,10.27
2022-12-25T05:53:08.327Z,8.48
2022-12-25T05:55:40.971Z,7.30
2022-12-25T05:58:08.502Z,9.18
2022-12-25T06:00:35.825Z,13.20
2022-12-25T06:03:03.134Z,11.55
2022-12-25T06:05:30.810Z,14.00
2022-12-25T06:07:57.802Z,14.02
2022-12-25T06:10:24.641Z,12.48
2022-12-25T06:12:51.391Z,9.27
2022-12-25T06:15:18.202Z,9.48
2022-12-25T06:17:44.960Z,12.43
2022-12-25T06:20:11.710Z,10.60
2022-12-25T06:22:38.461Z,7.30
2022-12-25T06:25:05.873Z,12.32
2022-12-25T06:27:32.552Z,11.93
2022-12-25T06:29:59.267Z,13.65
2022-12-25T06:32:25.993Z,13.90
2022-12-25T06:34:52.957Z,15.32
2022-12-25T06:37:19.902Z,16.20
2022-12-25T06:39:47.587Z,13.88
2022-12-25T06:42:14.388Z,15.38
2022-12-25T06:44:41.203Z,15.77
2022-12-25T06:47:07.976Z,12.75
2022-12-25T06:49:34.734Z,16.35
2022-12-25T06:52:01.546Z,15.48
2022-12-25T06:54:28.406Z,11.75
2022-12-25T06:56:55.204Z,11.45
2022-12-25T06:59:22.156Z,12.13
2022-12-25T07:01:57.680Z,12.57
2022-12-25T07:04:32.390Z,11.57
2022-12-25T07:07:03.181Z,10.65
2022-12-25T07:09:35.710Z,9.95
2022-12-25T07:12:27.497Z,9.82
2022-12-25T07:14:55.398Z,11.68
2022-12-25T07:17:23.371Z,11.57
2022-12-25T07:19:50.385Z,9.23
2022-12-25T07:22:17.649Z,11.85
2022-12-25T07:24:44.404Z,9.60
2022-12-25T07:27:11.105Z,7.78
2022-12-25T07:29:37.836Z,10.65
2022-12-25T07:32:05.124Z,10.10
2022-12-25T07:34:31.926Z,10.30
2022-12-25T07:36:58.737Z,15.02
2022-12-25T07:39:25.518Z,10.38
2022-12-25T07:41:52.319Z,7.88
2022-12-25T07:44:19.239Z,7.65
2022-12-25T07:46:46.162Z,7.88
2022-12-25T07:49:12.877Z,6.32
2022-12-25T07:51:39.679Z,8.48
2022-12-25T07:54:06.892Z,9.23
2022-12-25T07:56:33.772Z,8.13
2022-12-25T07:59:00.715Z,10.65
2022-12-25T08:01:28.913Z,12.77
2022-12-25T08:04:01.057Z,12.85
2022-12-25T08:06:31.605Z,7.35
2022-12-25T08:09:03.837Z,3.38
2022-12-25T08:11:30.591Z,6.80
2022-12-25T08:13:57.403Z,4.40
2022-12-25T08:16:24.509Z,8.70
2022-12-25T08:18:51.348Z,9.57
2022-12-25T08:21:18.120Z,8.73
2022-12-25T08:23:47.193Z,6.57
2022-12-25T08:26:20.052Z,7.47
2022-12-25T08:28:47.631Z,5.38
2022-12-25T08:31:27.011Z,10.95
2022-12-25T08:33:56.610Z,11.63
2022-12-25T08:36:23.983Z,12.05
2022-12-25T08:38:51.257Z,10.07
2022-12-25T08:41:18.933Z,8.63
2022-12-25T08:43:45.925Z,5.68
2022-12-25T08:46:13.087Z,6.32
2022-12-25T08:48:43.001Z,7.35
2022-12-25T08:51:15.017Z,4.88
2022-12-25T08:53:43.266Z,7.40
2022-12-25T08:56:10.180Z,9.75
2022-12-25T08:58:37.713Z,7.57
2022-12-25T09:01:05.268Z,5.07
2022-12-25T09:03:32.697Z,7.00
2022-12-25T09:06:09.321Z,4.57
2022-12-25T09:08:39.899Z,7.10
2022-12-25T09:11:13.373Z,6.10
2022-12-25T09:13:40.524Z,7.80
2022-12-25T09:16:10.095Z,9.77
2022-12-25T09:18:36.984Z,12.00
2022-12-25T09:21:06.784Z,10.73
2022-12-25T09:23:34.483Z,10.88
2022-12-25T09:26:02.815Z,8.82
2022-12-25T09:28:29.551Z,9.73
2022-12-25T09:30:56.464Z,9.90
2022-12-25T09:33:23.991Z,15.07
2022-12-25T09:36:01.654Z,12.93
2022-12-25T09:38:30.099Z,12.52
2022-12-25T09:41:00.936Z,13.45
2022-12-25T09:43:30.565Z,9.88
2022-12-25T09:45:59.064Z,14.77
2022-12-25T09:48:30.601Z,13.30
2022-12-25T09:51:08.419Z,14.02
2022-12-25T09:53:40.790Z,20.15
2022-12-25T09:56:12.749Z,14.57
2022-12-25T09:58:39.745Z,14.00
2022-12-25T10:01:19.034Z,11.40
2022-12-25T10:04:03.605Z,15.30
2022-12-25T10:06:32.910Z,11.77
2022-12-25T10:09:05.360Z,13.02
2022-12-25T10:11:50.309Z,15.13
2022-12-25T10:14:24.848Z,9.20
2022-12-25T10:17:22.894Z,15.75
2022-12-25T10:20:01.100Z,11.18
2022-12-25T10:22:36.110Z,13.27
2022-12-25T10:25:04.044Z,14.88
2022-12-25T10:27:56.955Z,15.30
2022-12-25T10:30:26.161Z,13.52
2022-12-25T10:32:54.991Z,13.10
2022-12-25T10:35:24.433Z,13.18
2022-12-25T10:38:09.728Z,12.98
2022-12-25T10:40:57.494Z,12.00
2022-12-25T10:43:33.046Z,13.13
2022-12-25T10:45:59.917Z,13.25
2022-12-25T10:48:29.612Z,10.40
2022-12-25T10:50:56.916Z,11.50
2022-12-25T10:53:28.576Z,11.85
2022-12-25T10:56:03.224Z,10.63
2022-12-25T10:58:31.521Z,12.70
2022-12-25T11:01:04.290Z,10.85
2022-12-25T11:03:34.169Z,10.82
2022-12-25T11:06:02.933Z,12.38
2022-12-25T11:08:32.140Z,10.75
2022-12-25T11:11:11.133Z,8.90
2022-12-25T11:13:48.954Z,10.02
2022-12-25T11:16:26.666Z,9.23
2022-12-25T11:18:54.682Z,10.85
2022-12-25T11:21:33.921Z,9.13
2022-12-25T11:24:03.693Z,11.30
2022-12-25T11:26:35.779Z,7.95
2022-12-25T11:29:03.718Z,12.77
2022-12-25T11:31:39.291Z,6.88
2022-12-25T11:34:20.527Z,9.93
2022-12-25T11:36:52.469Z,10.23
2022-12-25T11:39:26.829Z,9.77
2022-12-25T11:42:11.579Z,10.07
2022-12-25T11:44:46.158Z,7.68
2022-12-25T11:47:23.724Z,9.07
2022-12-25T11:50:01.047Z,10.23
2022-12-25T11:52:31.774Z,13.60
2022-12-25T11:55:20.476Z,10.82
2022-12-25T11:57:53.274Z,12.02
2022-12-25T12:00:27.528Z,10.60
2022-12-25T12:03:16.293Z,9.18
2022-12-25T12:05:53.864Z,11.15
2022-12-25T12:08:20.684Z,11.02
2022-12-25T12:11:16.111Z,10.20
2022-12-25T12:14:07.677Z,11.45
2022-12-25T12:16:35.381Z,10.00
2022-12-25T12:19:28.655Z,7.03
2022-12-25T12:22:00.809Z,10.57
2022-12-25T12:24:41.441Z,11.00
2022-12-25T12:27:27.646Z,7.78
2022-12-25T12:29:58.044Z,9.18
2022-12-25T12:32:33.826Z,10.23
2022-12-25T12:35:17.082Z,6.53
2022-12-25T12:37:46.225Z,7.20
2022-12-25T12:40:36.149Z,7.43
2022-12-25T12:43:04.295Z,8.82
2022-12-25T12:45:35.190Z,8.15
2022-12-25T12:48:13.584Z,7.70
2022-12-25T12:50:41.637Z,10.38
2022-12-25T12:53:23.940Z,8.32
2022-12-25T12:55:52.105Z,7.38
2022-12-25T12:58:50.675Z,10.45
2022-12-25T13:02:07.271Z,7.85
2022-12-25T13:05:00.944Z,8.68
2022-12-25T13:07:35.384Z,7.25
2022-12-25T13:10:22.905Z,8.48
2022-12-25T13:13:00.326Z,8.05
2022-12-25T13:15:30.814Z,7.20
2022-12-25T13:18:02.876Z,6.03
2022-12-25T13:20:40.090Z,7.20
2022-12-25T13:23:15.383Z,7.07
2022-12-25T13:25:42.160Z,7.75
2022-12-25T13:28:14.080Z,4.68
2022-12-25T13:30:41.049Z,9.90
2022-12-25T13:33:16.563Z,7.35
2022-12-25T13:35:44.241Z,7.63
2022-12-25T13:38:18.232Z,5.70
2022-12-25T13:41:11.428Z,6.10
2022-12-25T13:43:39.671Z,24.95
2022-12-25T13:46:06.913Z,5.72
2022-12-25T13:48:33.839Z,7.38
2022-12-25T13:51:02.502Z,6.47
2022-12-25T13:53:29.250Z,8.15
2022-12-25T13:55:57.439Z,7.35
2022-12-25T13:58:25.445Z,6.97
2022-12-25T14:00:55.453Z,6.32
2022-12-25T14:03:23.903Z,8.68
2022-12-25T14:05:59.352Z,6.15
2022-12-25T14:08:29.551Z,5.40
2022-12-25T14:10:57.193Z,6.72
2022-12-25T14:13:28.236Z,6.82
2022-12-25T14:15:56.682Z,5.72
2022-12-25T14:18:24.965Z,6.13
2022-12-25T14:21:21.664Z,5.57
2022-12-25T14:23:50.128Z,6.15
2022-12-25T14:26:18.957Z,5.13
2022-12-25T14:28:51.669Z,6.78
2022-12-25T14:31:19.521Z,9.48
2022-12-25T14:33:46.664Z,6.85
2022-12-25T14:36:14.241Z,8.25
2022-12-25T14:38:44.034Z,6.97
2022-12-25T14:41:37.731Z,7.10
2022-12-25T14:44:25.387Z,11.63
2022-12-25T14:47:13.040Z,10.38
2022-12-25T14:49:39.764Z,6.32
2022-12-25T14:52:21.296Z,7.40
2022-12-25T14:54:51.017Z,8.25
2022-12-25T14:57:27.345Z,7.03
2022-12-25T14:59:59.537Z,10.02
2022-12-25T15:02:26.756Z,12.70
2022-12-25T15:04:53.656Z,18.75
2022-12-25T15:07:32.888Z,20.30
2022-12-25T15:10:36.679Z,16.75
2022-12-25T15:12:46.346Z,14.15
2022-12-25T15:15:13.107Z,10.70
2022-12-25T15:17:39.889Z,10.77
2022-12-25T15:20:08.888Z,9.13
2022-12-25T15:23:02.285Z,9.02
2022-12-25T15:25:22.457Z,11.23
2022-12-25T15:27:49.270Z,9.75
2022-12-25T15:30:16.134Z,8.05
2022-12-25T15:32:42.943Z,9.07
2022-12-25T15:35:20.220Z,11.77
2022-12-25T15:37:47.459Z,11.43
2022-12-25T15:40:16.263Z,12.82
2022-12-25T15:42:44.998Z,7.82
2022-12-25T15:45:30.362Z,11.35
2022-12-25T15:47:57.810Z,9.45
2022-12-25T15:50:25.060Z,8.50
2022-12-25T15:52:51.901Z,7.93
2022-12-25T15:55:18.750Z,7.85
2022-12-25T15:57:47.517Z,13.32
2022-12-25T16:00:22.670Z,11.15
2022-12-25T16:02:50.548Z,9.63
2022-12-25T16:05:17.625Z,12.45
2022-12-25T16:07:44.456Z,12.30
2022-12-25T16:10:15.899Z,10.48
2022-12-25T16:12:43.276Z,10.38
2022-12-25T16:15:12.997Z,6.47
2022-12-25T16:17:40.556Z,5.40
2022-12-25T16:20:08.111Z,6.07
2022-12-25T16:22:39.995Z,5.45
2022-12-25T16:25:15.489Z,8.65
2022-12-25T16:27:42.522Z,8.65
2022-12-25T16:30:11.172Z,7.32
2022-12-25T16:32:37.922Z,7.95
2022-12-25T16:35:05.549Z,8.70
2022-12-25T16:37:32.296Z,7.15
2022-12-25T16:39:59.059Z,10.23
2022-12-25T16:42:25.842Z,11.02
2022-12-25T16:44:52.692Z,9.77
2022-12-25T16:47:19.458Z,11.63
2022-12-25T16:49:46.738Z,9.82
2022-12-25T16:52:13.672Z,8.98
2022-12-25T16:54:40.497Z,11.43
2022-12-25T16:57:07.250Z,11.18
2022-12-25T16:59:34.676Z,10.30
2022-12-25T17:02:01.798Z,8.73
2022-12-25T17:04:28.856Z,12.30
2022-12-25T17:06:56.427Z,11.40
2022-12-25T17:09:25.023Z,14.35
2022-12-25T17:11:52.060Z,14.75
2022-12-25T17:14:18.864Z,25.77
2022-12-25T17:16:45.931Z,36.22
2022-12-25T17:19:19.637Z,32.17
2022-12-25T17:21:46.876Z,31.27
2022-12-25T17:24:14.645Z,23.95
2022-12-25T17:26:43.750Z,27.48
2022-12-25T17:29:17.094Z,23.60
2022-12-25T17:31:47.427Z,20.38
2022-12-25T17:34:14.992Z,18.95
2022-12-25T17:36:41.837Z,22.33
2022-12-25T17:39:10.852Z,36.40
2022-12-25T17:41:37.806Z,30.60
2022-12-25T17:44:04.808Z,30.45
2022-12-25T17:46:31.897Z,33.72
2022-12-25T17:49:00.865Z,29.15
2022-12-25T17:51:29.462Z,21.38
2022-12-25T17:54:00.393Z,14.23
2022-12-25T17:56:27.241Z,12.85
2022-12-25T17:59:00.014Z,14.15
2022-12-25T18:01:28.903Z,11.45
2022-12-25T18:03:56.213Z,10.07
2022-12-25T18:06:24.868Z,14.50
2022-12-25T18:08:51.739Z,9.48
2022-12-25T18:11:23.246Z,10.10
2022-12-25T18:13:52.213Z,12.65
2022-12-25T18:16:24.507Z,12.43
2022-12-25T18:18:52.971Z,14.20
2022-12-25T18:21:22.264Z,16.52
2022-12-25T18:23:49.602Z,19.10
2022-12-25T18:26:16.842Z,20.83
2022-12-25T18:28:44.070Z,20.33
2022-12-25T18:31:14.924Z,25.05
2022-12-25T18:33:41.939Z,19.45
2022-12-25T18:36:11.234Z,15.68
2022-12-25T18:38:38.000Z,17.90
2022-12-25T18:41:06.578Z,14.63
2022-12-25T18:43:53.428Z,25.35
2022-12-25T18:46:22.396Z,39.53
2022-12-25T18:48:49.477Z,49.95
2022-12-25T18:51:16.364Z,34.95
2022-12-25T18:53:43.247Z,25.60
2022-12-25T18:56:15.749Z,20.92
2022-12-25T18:58:43.119Z,21.38
2022-12-25T19:01:24.082Z,24.58
2022-12-25T19:03:53.942Z,42.50
2022-12-25T19:06:26.731Z,34.38
2022-12-25T19:08:54.765Z,49.83
2022-12-25T19:11:21.966Z,48.38
2022-12-25T19:13:48.799Z,41.47
2022-12-25T19:16:16.680Z,59.47
2022-12-25T19:18:45.736Z,69.85
2022-12-25T19:21:12.659Z,70.60
2022-12-25T19:23:40.683Z,56.13
2022-12-25T19:26:09.206Z,41.30
2022-12-25T19:28:36.683Z,30.67
2022-12-25T19:31:07.383Z,22.58
2022-12-25T19:33:35.566Z,29.20
2022-12-25T19:36:05.576Z,33.25
2022-12-25T19:38:32.399Z,21.60
2022-12-25T19:41:01.967Z,20.33
2022-12-25T19:43:31.192Z,23.25
2022-12-25T19:46:00.126Z,28.73
2022-12-25T19:48:27.669Z,27.92
2022-12-25T19:50:54.656Z,21.85
2022-12-25T19:53:23.810Z,17.80
2022-12-25T19:55:55.497Z,17.45
2022-12-25T19:58:23.701Z,18.40
2022-12-25T20:00:58.405Z,20.77
2022-12-25T20:03:25.873Z,20.48
2022-12-25T20:05:52.904Z,18.80
2022-12-25T20:08:20.064Z,21.27
2022-12-25T20:10:46.897Z,22.55
2022-12-25T20:13:13.640Z,17.52
2022-12-25T20:15:40.567Z,14.80
2022-12-25T20:18:07.514Z,20.23
2022-12-25T20:20:34.552Z,34.63
2022-12-25T20:23:01.309Z,33.20
2022-12-25T20:25:28.149Z,27.27
2022-12-25T20:27:54.957Z,32.53
2022-12-25T20:30:21.881Z,25.75
2022-12-25T20:32:50.724Z,30.95
2022-12-25T20:35:17.663Z,31.95
2022-12-25T20:37:44.837Z,30.20
2022-12-25T20:40:12.289Z,27.90
2022-12-25T20:42:39.100Z,27.63
2022-12-25T20:45:07.554Z,23.20
2022-12-25T20:47:35.351Z,26.45
2022-12-25T20:50:02.393Z,23.60
2022-12-25T20:52:29.206Z,21.88
2022-12-25T20:54:56.043Z,19.15
2022-12-25T20:57:22.817Z,17.67
2022-12-25T20:59:49.666Z,11.40
2022-12-25T21:02:35.126Z,13.07
2022-12-25T21:05:04.470Z,16.55
2022-12-25T21:07:31.334Z,17.60
2022-12-25T21:09:59.246Z,17.27
2022-12-25T21:12:26.387Z,21.02
2022-12-25T21:14:53.316Z,12.65
2022-12-25T21:17:20.281Z,18.58
2022-12-25T21:19:47.113Z,16.15
2022-12-25T21:22:13.973Z,14.63
2022-12-25T21:24:40.751Z,13.13
2022-12-25T21:27:08.700Z,13.18
2022-12-25T21:29:35.493Z,18.52
2022-12-25T21:32:21.053Z,97.97
2022-12-25T21:34:47.804Z,87.32
2022-12-25T21:37:14.610Z,81.28
2022-12-25T21:39:41.597Z,73.63
2022-12-25T21:42:08.351Z,81.82
2022-12-25T21:44:35.268Z,68.40
2022-12-25T21:47:02.091Z,48.17
2022-12-25T21:49:47.413Z,23.98
2022-12-25T21:52:14.232Z,29.05
2022-12-25T21:54:41.080Z,31.58
2022-12-25T21:57:07.904Z,30.17
2022-12-25T21:59:34.659Z,23.73
2022-12-25T22:02:01.543Z,17.45
2022-12-25T22:04:28.499Z,8.77
2022-12-25T22:07:13.717Z,12.45
2022-12-25T22:09:40.444Z,24.02
2022-12-25T22:12:31.886Z,14.05
2022-12-25T22:15:06.683Z,12.73
2022-12-25T22:17:57.317Z,13.20
2022-12-25T22:20:38.491Z,12.00
2022-12-25T22:23:05.344Z,11.90
2022-12-25T22:25:32.240Z,24.15
2022-12-25T22:27:59.572Z,35.50
2022-12-25T22:30:28.855Z,41.38
2022-12-25T22:32:56.417Z,24.58
2022-12-25T22:35:24.033Z,29.85
2022-12-25T22:37:50.982Z,31.45
2022-12-25T22:40:19.253Z,29.40
2022-12-25T22:42:46.561Z,37.53
2022-12-25T22:45:13.819Z,34.45
2022-12-25T22:47:41.323Z,27.33
2022-12-25T22:50:09.301Z,23.33
2022-12-25T22:52:36.906Z,16.43
2022-12-25T22:55:04.820Z,19.92
2022-12-25T22:57:31.754Z,21.63
2022-12-25T22:59:58.382Z,28.25
2022-12-25T23:02:25.412Z,27.02
2022-12-25T23:04:52.977Z,24.20
2022-12-25T23:07:19.636Z,22.77
2022-12-25T23:09:46.478Z,96.30
2022-12-25T23:12:33.159Z,46.83
2022-12-25T23:14:59.941Z,16.33
2022-12-25T23:17:45.389Z,15.23
2022-12-25T23:20:38.167Z,19.60
2022-12-25T23:23:23.138Z,23.23
2022-12-25T23:26:07.971Z,26.15
2022-12-25T23:29:00.360Z,26.42
2022-12-25T23:31:40.080Z,22.20
2022-12-25T23:34:08.733Z,26.08
2022-12-25T23:36:35.654Z,28.25
2022-12-25T23:39:09.080Z,30.35
2022-12-25T23:41:38.398Z,26.00
2022-12-25T23:44:05.232Z,22.98
2022-12-25T23:46:32.109Z,18.80
2022-12-25T23:48:58.978Z,18.30
2022-12-25T23:51:25.740Z,20.05
2022-12-25T23:53:52.675Z,17.30
2022-12-25T23:56:19.451Z,21.27
2022-12-25T23:58:51.535Z,20.23
